Terminal Aerodrome Forecast
Issued by NWS Springfield, MO

Home | Current Version | Previous Version | Text Only | Print | Product List | Glossary On
Versions: 1 2 3 4 5 6 7 8 9 10 11 12 13 14 15 16 17 18 19 20
000
FTUS43 KSGF 232300
TAFSGF
TAF
KSGF 232326Z 2400/2424 15015KT P6SM FEW250
     FM240400 15019G29KT P6SM SCT150 BKN200 WS018/19050KT
     FM241400 17016G25KT P6SM -SHRA SCT050 OVC080 PROB30 2414/2418
      5SM -TSRA BKN030CB
     FM241800 21015G24KT P6SM -SHRA VCTS BKN040CB OVC080
      TEMPO 2418/2422 4SM TSRA BR BKN030CB
     FM242200 28014G23KT P6SM -SHRA VCTS OVC040CB=

USA.gov is the U.S. government's official web portal to all federal, state and local government web resources and services.